Terminal Aerodrome Forecast
Issued by NWS Corpus Christi, TX

Home | Current Version | Previous Version | Text Only | Print | Product List | Glossary On
Versions: 1 2 3 4 5 6 7 8 9 10 11 12 13 14 15 16 17 18
000
FTUS44 KCRP 221500 AAA
TAFVCT
TAF AMD
KVCT 221530Z 2216/2312 23007KT P6SM BKN025
     FM221630 22012KT P6SM FEW030
     FM230200 18005KT P6SM SCT015
     FM230600 11004KT 2SM BR OVC004=

USA.gov is the U.S. government's official web portal to all federal, state and local government web resources and services.